createdAt,value
2023-04-02T00:00:15.399Z,22.70
2023-04-02T00:01:15.384Z,22.70
2023-04-02T00:02:15.402Z,23.00
2023-04-02T00:03:15.462Z,23.10
2023-04-02T00:04:15.389Z,22.80
2023-04-02T00:05:15.365Z,22.80
2023-04-02T00:06:15.358Z,22.60
2023-04-02T00:07:15.364Z,21.90
2023-04-02T00:08:15.350Z,22.30
2023-04-02T00:09:15.351Z,22.10
2023-04-02T00:10:15.352Z,21.30
2023-04-02T00:11:15.340Z,21.30
2023-04-02T00:12:15.353Z,21.10
2023-04-02T00:13:15.328Z,20.90
2023-04-02T00:14:15.324Z,20.70
2023-04-02T00:15:15.320Z,21.00
2023-04-02T00:16:15.349Z,20.80
2023-04-02T00:17:15.315Z,21.00
2023-04-02T00:18:15.340Z,20.40
2023-04-02T00:19:15.308Z,20.80
2023-04-02T00:20:15.300Z,20.60
2023-04-02T00:21:15.305Z,20.00
2023-04-02T00:22:15.329Z,20.70
2023-04-02T00:23:15.293Z,21.30
2023-04-02T00:24:15.286Z,21.40
2023-04-02T00:25:15.285Z,21.40
2023-04-02T00:26:15.273Z,21.30
2023-04-02T00:27:15.274Z,21.20
2023-04-02T00:28:15.267Z,21.00
2023-04-02T00:29:15.268Z,21.30
2023-04-02T00:30:15.258Z,20.90
2023-04-02T00:31:15.259Z,21.50
2023-04-02T00:32:15.409Z,21.00
2023-04-02T00:33:15.250Z,21.40
2023-04-02T00:34:15.240Z,20.70
2023-04-02T00:35:15.243Z,21.30
2023-04-02T00:36:15.295Z,21.00
2023-04-02T00:37:15.235Z,21.60
2023-04-02T00:38:15.227Z,21.70
2023-04-02T00:39:15.224Z,21.20
2023-04-02T00:40:15.235Z,20.30
2023-04-02T00:41:15.222Z,20.80
2023-04-02T00:42:15.212Z,21.40
2023-04-02T00:43:15.210Z,20.90
2023-04-02T00:44:15.199Z,20.90
2023-04-02T00:45:15.198Z,20.60
2023-04-02T00:46:15.224Z,20.80
2023-04-02T00:47:15.195Z,19.90
2023-04-02T00:48:15.204Z,20.60
2023-04-02T00:49:15.182Z,19.20
2023-04-02T00:50:15.181Z,19.70
2023-04-02T00:51:15.178Z,20.10
2023-04-02T00:52:15.167Z,19.40
2023-04-02T00:53:15.170Z,19.30
2023-04-02T00:54:15.160Z,19.90
2023-04-02T00:55:15.162Z,19.00
2023-04-02T00:56:15.152Z,19.00
2023-04-02T00:57:15.201Z,18.60
2023-04-02T00:58:15.146Z,19.40
2023-04-02T00:59:15.142Z,19.20
2023-04-02T01:00:15.140Z,19.10
2023-04-02T01:01:15.193Z,19.00
2023-04-02T01:02:15.186Z,19.20
2023-04-02T01:03:15.184Z,19.10
2023-04-02T01:04:15.139Z,19.80
2023-04-02T01:05:15.126Z,19.40
2023-04-02T01:06:15.108Z,18.90
2023-04-02T01:07:15.108Z,18.80
2023-04-02T01:08:15.106Z,18.60
2023-04-02T01:09:15.097Z,19.10
2023-04-02T01:10:15.103Z,19.60
2023-04-02T01:11:15.093Z,19.20
2023-04-02T01:12:15.094Z,19.70
2023-04-02T01:13:15.088Z,19.30
2023-04-02T01:14:15.088Z,19.80
2023-04-02T01:15:15.068Z,19.70
2023-04-02T01:16:15.130Z,19.90
2023-04-02T01:17:15.066Z,19.40
2023-04-02T01:18:15.059Z,19.10
2023-04-02T01:19:15.054Z,19.10
2023-04-02T01:20:15.076Z,19.10
2023-04-02T01:21:15.042Z,19.00
2023-04-02T01:22:15.040Z,19.30
2023-04-02T01:23:15.037Z,19.60
2023-04-02T01:24:15.043Z,18.20
2023-04-02T01:25:15.025Z,19.30
2023-04-02T01:26:15.029Z,19.40
2023-04-02T01:27:15.021Z,18.80
2023-04-02T01:28:15.015Z,19.20
2023-04-02T01:29:15.030Z,18.80
2023-04-02T01:30:15.020Z,19.00
2023-04-02T01:31:15.047Z,19.20
2023-04-02T01:32:15.003Z,18.80
2023-04-02T01:33:14.997Z,18.80
2023-04-02T01:34:14.997Z,18.80
2023-04-02T01:35:14.984Z,19.00
2023-04-02T01:36:15.068Z,18.90
2023-04-02T01:37:14.976Z,18.60
2023-04-02T01:38:14.973Z,19.00
2023-04-02T01:39:14.964Z,19.00
2023-04-02T01:40:14.978Z,18.40
2023-04-02T01:41:14.958Z,18.50
2023-04-02T01:42:14.958Z,18.90
2023-04-02T01:43:14.953Z,18.80
2023-04-02T01:44:14.946Z,18.10
2023-04-02T01:45:14.939Z,18.40
2023-04-02T01:46:14.954Z,18.10
2023-04-02T01:47:14.938Z,18.10
2023-04-02T01:48:14.929Z,18.10
2023-04-02T01:49:14.924Z,18.40
2023-04-02T01:50:14.924Z,18.70
2023-04-02T01:51:14.916Z,18.70
2023-04-02T01:52:14.935Z,18.30
2023-04-02T01:53:14.929Z,18.00
2023-04-02T01:54:14.913Z,18.10
2023-04-02T01:55:14.900Z,18.10
2023-04-02T01:56:14.906Z,18.50
2023-04-02T01:57:14.931Z,17.90
2023-04-02T01:58:14.900Z,18.10
2023-04-02T01:59:14.879Z,18.40
2023-04-02T02:00:14.895Z,18.10
2023-04-02T02:01:14.957Z,18.20
2023-04-02T02:02:14.950Z,18.20
2023-04-02T02:03:14.903Z,17.80
2023-04-02T02:04:14.873Z,18.30
2023-04-02T02:05:14.861Z,18.50
2023-04-02T02:06:14.853Z,18.50
2023-04-02T02:07:14.851Z,18.40
2023-04-02T02:08:14.869Z,18.60
2023-04-02T02:09:14.840Z,19.00
2023-04-02T02:10:14.845Z,19.30
2023-04-02T02:11:14.826Z,19.00
2023-04-02T02:12:14.831Z,18.30
2023-04-02T02:13:14.823Z,18.20
2023-04-02T02:14:14.827Z,18.10
2023-04-02T02:15:14.813Z,19.00
2023-04-02T02:16:14.850Z,18.40
2023-04-02T02:17:14.809Z,18.10
2023-04-02T02:18:14.802Z,18.70
2023-04-02T02:19:14.796Z,18.30
2023-04-02T02:20:14.806Z,17.90
2023-04-02T02:21:14.793Z,17.70
2023-04-02T02:22:14.791Z,17.50
2023-04-02T02:23:14.785Z,18.20
2023-04-02T02:24:14.804Z,17.50
2023-04-02T02:25:14.776Z,17.60
2023-04-02T02:26:14.784Z,17.20
2023-04-02T02:27:14.767Z,17.40
2023-04-02T02:28:14.763Z,17.30
2023-04-02T02:29:14.758Z,17.20
2023-04-02T02:30:14.755Z,17.40
2023-04-02T02:31:14.749Z,17.60
2023-04-02T02:32:14.846Z,17.40
2023-04-02T02:33:14.746Z,17.00
2023-04-02T02:34:14.746Z,17.10
2023-04-02T02:35:14.759Z,17.00
2023-04-02T02:36:14.791Z,17.40
2023-04-02T02:37:14.727Z,17.50
2023-04-02T02:38:14.725Z,17.50
2023-04-02T02:39:14.721Z,16.80
2023-04-02T02:40:14.737Z,17.40
2023-04-02T02:41:14.706Z,17.20
2023-04-02T02:42:14.706Z,17.40
2023-04-02T02:43:14.707Z,16.90
2023-04-02T02:44:14.702Z,17.50
2023-04-02T02:45:14.687Z,17.10
2023-04-02T02:46:14.707Z,17.10
2023-04-02T02:47:14.685Z,16.90
2023-04-02T02:48:14.679Z,16.60
2023-04-02T02:49:14.670Z,17.20
2023-04-02T02:50:14.676Z,16.90
2023-04-02T02:51:15.627Z,17.00
2023-04-02T02:52:14.658Z,17.70
2023-04-02T02:53:14.653Z,17.10
2023-04-02T02:54:14.648Z,16.60
2023-04-02T02:55:14.637Z,17.00
2023-04-02T02:56:14.664Z,17.20
2023-04-02T02:57:14.750Z,16.80
2023-04-02T02:58:14.633Z,16.60
2023-04-02T02:59:14.623Z,16.90
2023-04-02T03:00:14.638Z,16.30
2023-04-02T03:01:14.660Z,16.60
2023-04-02T03:02:14.719Z,16.50
2023-04-02T03:03:14.833Z,16.50
2023-04-02T03:04:14.752Z,16.00
2023-04-02T03:05:14.598Z,16.50
2023-04-02T03:06:14.595Z,16.70
2023-04-02T03:07:14.584Z,16.20
2023-04-02T03:08:14.588Z,16.70
2023-04-02T03:09:14.578Z,16.20
2023-04-02T03:10:14.590Z,15.80
2023-04-02T03:11:14.575Z,16.10
2023-04-02T03:12:14.603Z,16.40
2023-04-02T03:13:14.559Z,16.30
2023-04-02T03:14:14.558Z,16.40
2023-04-02T03:15:14.550Z,16.60
2023-04-02T03:16:14.625Z,17.10
2023-04-02T03:17:14.543Z,16.50
2023-04-02T03:18:14.545Z,16.40
2023-04-02T03:19:14.535Z,16.20
2023-04-02T03:20:14.533Z,15.90
2023-04-02T03:21:14.530Z,16.00
2023-04-02T03:22:14.531Z,16.20
2023-04-02T03:23:14.522Z,16.70
2023-04-02T03:24:14.525Z,16.40
2023-04-02T03:25:14.523Z,15.90
2023-04-02T03:26:14.513Z,15.50
2023-04-02T03:27:14.505Z,16.30
2023-04-02T03:28:14.528Z,16.40
2023-04-02T03:29:14.503Z,16.00
2023-04-02T03:30:14.494Z,15.60
2023-04-02T03:31:14.532Z,16.00
2023-04-02T03:32:14.485Z,15.50
2023-04-02T03:33:14.479Z,15.40
2023-04-02T03:34:14.474Z,15.80
2023-04-02T03:35:14.467Z,15.60
2023-04-02T03:36:14.548Z,15.30
2023-04-02T03:37:14.482Z,15.50
2023-04-02T03:38:14.456Z,15.30
2023-04-02T03:39:14.452Z,15.70
2023-04-02T03:40:14.451Z,15.00
2023-04-02T03:41:14.455Z,15.00
2023-04-02T03:42:14.444Z,15.20
2023-04-02T03:43:14.437Z,15.30
2023-04-02T03:44:14.466Z,14.50
2023-04-02T03:45:14.431Z,14.60
2023-04-02T03:46:14.437Z,15.30
2023-04-02T03:47:14.421Z,15.20
2023-04-02T03:48:14.419Z,14.80
2023-04-02T03:49:14.408Z,15.50
2023-04-02T03:50:14.405Z,15.40
2023-04-02T03:51:14.408Z,15.20
2023-04-02T03:52:14.398Z,15.20
2023-04-02T03:53:14.392Z,15.20
2023-04-02T03:54:14.391Z,15.10
2023-04-02T03:55:14.382Z,15.10
2023-04-02T03:56:14.380Z,14.40
2023-04-02T03:57:14.432Z,14.70
2023-04-02T03:58:14.379Z,14.90
2023-04-02T03:59:14.377Z,14.90
2023-04-02T04:00:14.456Z,14.80
2023-04-02T04:01:14.358Z,15.00
2023-04-02T04:02:14.378Z,14.40
2023-04-02T04:03:14.345Z,14.60
2023-04-02T04:04:14.389Z,14.50
2023-04-02T04:05:14.337Z,14.60
2023-04-02T04:06:14.351Z,14.80
2023-04-02T04:07:14.325Z,14.60
2023-04-02T04:08:14.331Z,14.60
2023-04-02T04:09:14.322Z,14.70
2023-04-02T04:10:14.318Z,14.60
2023-04-02T04:11:14.387Z,14.30
2023-04-02T04:12:14.312Z,14.90
2023-04-02T04:13:14.302Z,14.70
2023-04-02T04:14:14.307Z,14.20
2023-04-02T04:15:14.293Z,14.70
2023-04-02T04:16:14.403Z,15.00
2023-04-02T04:17:14.300Z,14.70
2023-04-02T04:18:14.286Z,14.40
2023-04-02T04:19:14.282Z,14.20
2023-04-02T04:20:14.284Z,14.60
2023-04-02T04:21:14.270Z,14.50
2023-04-02T04:22:14.273Z,14.10
2023-04-02T04:23:14.266Z,15.10
2023-04-02T04:24:14.266Z,14.60
2023-04-02T04:25:14.250Z,14.30
2023-04-02T04:26:14.251Z,14.80
2023-04-02T04:27:14.242Z,14.20
2023-04-02T04:28:14.241Z,14.70
2023-04-02T04:29:14.235Z,14.60
2023-04-02T04:30:14.236Z,14.50
2023-04-02T04:31:14.224Z,14.00
2023-04-02T04:32:14.519Z,14.10
2023-04-02T04:33:14.224Z,14.40
2023-04-02T04:34:14.217Z,14.20
2023-04-02T04:35:14.212Z,14.20
2023-04-02T04:36:14.225Z,14.30
2023-04-02T04:37:14.198Z,13.90
2023-04-02T04:38:14.211Z,14.00
2023-04-02T04:39:14.191Z,13.50
2023-04-02T04:40:14.190Z,13.80
2023-04-02T04:41:14.204Z,14.40
2023-04-02T04:42:14.186Z,13.90
2023-04-02T04:43:14.172Z,13.50
2023-04-02T04:44:14.182Z,13.70
2023-04-02T04:45:14.166Z,13.50
2023-04-02T04:46:14.219Z,13.50
2023-04-02T04:47:14.166Z,13.40
2023-04-02T04:48:14.184Z,13.60
2023-04-02T04:49:14.156Z,14.00
2023-04-02T04:50:14.153Z,13.80
2023-04-02T04:51:14.142Z,14.00
2023-04-02T04:52:14.136Z,13.60
2023-04-02T04:53:14.137Z,13.60
2023-04-02T04:54:14.132Z,13.80
2023-04-02T04:55:15.801Z,14.10
2023-04-02T04:56:19.239Z,14.00
2023-04-02T04:57:14.132Z,13.70
2023-04-02T04:58:14.112Z,13.90
2023-04-02T04:59:14.098Z,13.40
2023-04-02T05:00:14.116Z,13.60
2023-04-02T05:01:14.108Z,13.40
2023-04-02T05:02:14.104Z,13.10
2023-04-02T05:03:14.088Z,13.20
2023-04-02T05:04:14.141Z,13.40
2023-04-02T05:05:14.077Z,13.80
2023-04-02T05:06:14.076Z,13.30
2023-04-02T05:07:14.073Z,13.70
2023-04-02T05:08:14.071Z,14.00
2023-04-02T05:09:14.061Z,13.30
2023-04-02T05:10:14.058Z,13.60
2023-04-02T05:11:14.052Z,14.10
2023-04-02T05:12:14.048Z,13.60
2023-04-02T05:13:14.041Z,14.00
2023-04-02T05:14:14.040Z,13.90
2023-04-02T05:15:14.033Z,14.20
2023-04-02T05:16:14.093Z,14.50
2023-04-02T05:17:14.026Z,13.90
2023-04-02T05:18:14.026Z,13.80
2023-04-02T05:19:14.022Z,13.50
2023-04-02T05:20:14.036Z,13.70
2023-04-02T05:21:14.015Z,14.10
2023-04-02T05:22:14.008Z,13.70
2023-04-02T05:23:14.006Z,13.50
2023-04-02T05:24:13.999Z,18.00
2023-04-02T05:25:13.993Z,13.90
2023-04-02T05:26:13.987Z,13.80
2023-04-02T05:27:13.980Z,14.00
2023-04-02T05:28:13.987Z,14.00
2023-04-02T05:29:13.975Z,13.70
2023-04-02T05:30:13.967Z,14.50
2023-04-02T05:31:13.980Z,14.10
2023-04-02T05:32:13.966Z,14.10
2023-04-02T05:33:13.969Z,14.40
2023-04-02T05:34:13.951Z,14.00
2023-04-02T05:35:13.957Z,13.80
2023-04-02T05:36:13.987Z,14.10
2023-04-02T05:37:13.942Z,13.70
2023-04-02T05:38:13.934Z,13.90
2023-04-02T05:39:13.937Z,13.80
2023-04-02T05:40:13.926Z,13.50
2023-04-02T05:41:13.931Z,14.00
2023-04-02T05:42:13.919Z,13.40
2023-04-02T05:43:13.926Z,13.60
2023-04-02T05:44:13.914Z,13.50
2023-04-02T05:45:13.910Z,13.30
2023-04-02T05:46:13.928Z,13.60
2023-04-02T05:47:13.903Z,13.40
2023-04-02T05:48:13.896Z,13.40
2023-04-02T05:49:13.902Z,13.00
2023-04-02T05:50:13.889Z,13.10
2023-04-02T05:51:13.887Z,12.70
2023-04-02T05:52:13.901Z,13.10
2023-04-02T05:53:13.886Z,13.20
2023-04-02T05:54:13.874Z,13.00
2023-04-02T05:55:13.886Z,12.70
2023-04-02T05:56:13.863Z,12.90
2023-04-02T05:57:13.975Z,12.60
2023-04-02T05:58:34.726Z,12.60
2023-04-02T05:59:13.858Z,12.70
2023-04-02T06:00:13.852Z,12.70
2023-04-02T06:01:13.845Z,12.90
2023-04-02T06:02:13.903Z,12.60
2023-04-02T06:03:13.933Z,12.40
2023-04-02T06:04:13.917Z,12.10
2023-04-02T06:05:13.832Z,12.20
2023-04-02T06:06:14.758Z,12.00
2023-04-02T06:07:13.823Z,12.00
2023-04-02T06:08:13.837Z,11.90
2023-04-02T06:09:13.811Z,11.60
2023-04-02T06:10:13.805Z,11.90
2023-04-02T06:11:13.803Z,12.00
2023-04-02T06:12:13.798Z,11.90
2023-04-02T06:13:13.796Z,12.30
2023-04-02T06:14:13.791Z,12.50
2023-04-02T06:15:13.789Z,12.40
2023-04-02T06:16:13.813Z,12.50
2023-04-02T06:17:13.789Z,12.60
2023-04-02T06:18:13.791Z,12.80
2023-04-02T06:19:13.772Z,12.40
2023-04-02T06:20:13.765Z,12.20
2023-04-02T06:21:13.766Z,13.00
2023-04-02T06:22:13.758Z,12.80
2023-04-02T06:23:13.757Z,12.80
2023-04-02T06:24:13.777Z,12.80
2023-04-02T06:25:13.751Z,12.40
2023-04-02T06:26:13.757Z,12.30
2023-04-02T06:27:13.770Z,12.30
2023-04-02T06:28:13.750Z,11.80
2023-04-02T06:29:13.732Z,12.20
2023-04-02T06:30:13.728Z,12.30
2023-04-02T06:31:13.734Z,12.10
2023-04-02T06:32:13.716Z,12.10
2023-04-02T06:33:13.726Z,12.80
2023-04-02T06:34:13.710Z,12.40
2023-04-02T06:35:13.713Z,12.40
2023-04-02T06:36:13.747Z,12.00
2023-04-02T06:37:13.709Z,12.50
2023-04-02T06:38:13.700Z,11.90
2023-04-02T06:39:13.694Z,12.00
2023-04-02T06:40:13.716Z,12.20
2023-04-02T06:41:13.686Z,12.40
2023-04-02T06:42:13.680Z,12.30
2023-04-02T06:43:13.685Z,12.20
2023-04-02T06:44:13.679Z,12.50
2023-04-02T06:45:13.687Z,12.80
2023-04-02T06:46:13.718Z,12.20
2023-04-02T06:47:13.669Z,11.80
2023-04-02T06:48:13.675Z,12.20
2023-04-02T06:49:13.658Z,11.90
2023-04-02T06:50:13.651Z,12.20
2023-04-02T06:51:13.662Z,12.60
2023-04-02T06:52:13.644Z,12.20
2023-04-02T06:53:13.641Z,13.30
2023-04-02T06:54:13.632Z,12.80
2023-04-02T06:55:13.670Z,12.70
2023-04-02T06:56:13.650Z,12.80
2023-04-02T06:57:13.674Z,12.90
2023-04-02T06:58:13.624Z,12.90
2023-04-02T06:59:13.640Z,12.90
2023-04-02T07:00:13.614Z,13.00
2023-04-02T07:01:13.630Z,13.10
2023-04-02T07:02:13.609Z,12.70
2023-04-02T07:03:13.603Z,12.90
2023-04-02T07:04:13.598Z,12.70
2023-04-02T07:05:13.705Z,12.70
2023-04-02T07:06:13.587Z,12.50
2023-04-02T07:07:13.589Z,13.00
2023-04-02T07:08:13.594Z,12.70
2023-04-02T07:09:13.583Z,12.70
2023-04-02T07:10:13.578Z,12.90
2023-04-02T07:11:13.573Z,12.60
2023-04-02T07:12:13.610Z,12.80
2023-04-02T07:13:13.567Z,12.90
2023-04-02T07:14:13.566Z,12.80
2023-04-02T07:15:13.562Z,13.00
2023-04-02T07:16:13.634Z,12.60
2023-04-02T07:17:13.572Z,12.90
2023-04-02T07:18:13.542Z,12.90
2023-04-02T07:19:13.544Z,13.10
2023-04-02T07:20:13.533Z,12.80
2023-04-02T07:21:13.540Z,12.40
2023-04-02T07:22:13.531Z,12.90
2023-04-02T07:23:15.225Z,12.70
2023-04-02T07:24:13.526Z,12.30
2023-04-02T07:25:13.525Z,12.40
2023-04-02T07:26:13.515Z,12.10
2023-04-02T07:27:13.519Z,12.30
2023-04-02T07:28:13.540Z,12.50
2023-04-02T07:29:13.515Z,11.80
2023-04-02T07:30:13.506Z,12.50
2023-04-02T07:31:13.538Z,12.20
2023-04-02T07:32:13.502Z,12.50
2023-04-02T07:33:13.561Z,11.90
2023-04-02T07:34:13.500Z,12.10
2023-04-02T07:35:13.497Z,12.70
2023-04-02T07:36:13.513Z,12.20
2023-04-02T07:37:13.491Z,12.60
2023-04-02T07:38:13.486Z,12.90
2023-04-02T07:39:13.485Z,13.00
2023-04-02T07:40:13.500Z,13.00
2023-04-02T07:41:13.491Z,12.70
2023-04-02T07:42:13.478Z,12.90
2023-04-02T07:43:13.489Z,12.60
2023-04-02T07:44:13.502Z,12.40
2023-04-02T07:45:13.491Z,12.80
2023-04-02T07:46:13.514Z,12.40
2023-04-02T07:47:13.478Z,12.60
2023-04-02T07:48:13.471Z,12.60
2023-04-02T07:49:13.477Z,13.20
2023-04-02T07:50:13.484Z,13.20
2023-04-02T07:51:13.464Z,13.20
2023-04-02T07:52:13.463Z,12.60
2023-04-02T07:53:13.463Z,12.90
2023-04-02T07:54:13.477Z,12.80
2023-04-02T07:55:13.479Z,12.90
2023-04-02T07:56:13.455Z,12.70
2023-04-02T07:57:13.525Z,13.20
2023-04-02T07:58:13.459Z,12.60
2023-04-02T07:59:13.463Z,12.60
2023-04-02T08:00:13.468Z,12.50
2023-04-02T08:01:13.448Z,12.50
2023-04-02T08:02:13.499Z,12.20
2023-04-02T08:03:13.588Z,12.40
2023-04-02T08:04:13.461Z,12.60
2023-04-02T08:05:13.453Z,12.30
2023-04-02T08:06:13.438Z,12.30
2023-04-02T08:07:13.439Z,12.20
2023-04-02T08:08:13.434Z,12.40
2023-04-02T08:09:13.433Z,12.30
2023-04-02T08:10:13.441Z,12.20
2023-04-02T08:11:13.429Z,12.00
2023-04-02T08:12:13.427Z,12.20
2023-04-02T08:13:13.426Z,12.10
2023-04-02T08:14:13.418Z,12.30
2023-04-02T08:15:13.426Z,12.40
2023-04-02T08:16:13.503Z,12.40
2023-04-02T08:17:13.420Z,12.20
2023-04-02T08:18:13.416Z,12.40
2023-04-02T08:19:13.417Z,12.20
2023-04-02T08:20:13.409Z,12.50
2023-04-02T08:21:15.201Z,12.10
2023-04-02T08:22:13.401Z,12.40
2023-04-02T08:23:13.408Z,12.20
2023-04-02T08:24:13.416Z,11.90
2023-04-02T08:25:13.403Z,11.80
2023-04-02T08:26:13.398Z,11.70
2023-04-02T08:27:13.403Z,11.70
2023-04-02T08:28:13.397Z,11.30
2023-04-02T08:29:13.402Z,11.40
2023-04-02T08:30:13.390Z,11.20
2023-04-02T08:31:13.535Z,11.70
2023-04-02T08:32:13.422Z,11.60
2023-04-02T08:33:13.388Z,12.00
2023-04-02T08:34:13.384Z,11.80
2023-04-02T08:35:13.384Z,11.90
2023-04-02T08:36:13.457Z,11.50
2023-04-02T08:37:13.388Z,11.70
2023-04-02T08:38:13.399Z,11.70
2023-04-02T08:39:13.390Z,11.90
2023-04-02T08:40:13.372Z,11.90
2023-04-02T08:41:13.383Z,11.90
2023-04-02T08:42:13.370Z,12.30
2023-04-02T08:43:13.369Z,12.00
2023-04-02T08:44:13.374Z,12.20
2023-04-02T08:45:24.217Z,12.00
2023-04-02T08:46:13.371Z,12.10
2023-04-02T08:47:13.357Z,11.90
2023-04-02T08:48:13.394Z,12.00
2023-04-02T08:49:13.358Z,11.80
2023-04-02T08:50:13.350Z,11.70
2023-04-02T08:51:13.365Z,12.00
2023-04-02T08:52:13.355Z,11.50
2023-04-02T08:53:13.349Z,12.00
2023-04-02T08:54:13.340Z,12.00
2023-04-02T08:55:13.371Z,11.90
2023-04-02T08:56:13.340Z,12.00
2023-04-02T08:57:13.376Z,11.90
2023-04-02T08:58:13.338Z,11.60
2023-04-02T08:59:13.342Z,12.20
2023-04-02T09:00:13.339Z,12.20
2023-04-02T09:01:13.361Z,12.70
2023-04-02T09:02:13.325Z,11.80
2023-04-02T09:03:13.331Z,12.10
2023-04-02T09:04:13.386Z,12.30
2023-04-02T09:05:13.324Z,12.40
2023-04-02T09:06:15.345Z,12.70
2023-04-02T09:07:13.319Z,12.20
2023-04-02T09:08:13.323Z,12.70
2023-04-02T09:09:13.321Z,12.60
2023-04-02T09:10:13.313Z,12.40
2023-04-02T09:11:13.313Z,12.80
2023-04-02T09:12:13.314Z,12.40
2023-04-02T09:13:13.316Z,12.80
2023-04-02T09:14:13.305Z,12.50
2023-04-02T09:15:13.301Z,12.50
2023-04-02T09:16:13.376Z,12.70
2023-04-02T09:17:13.302Z,12.80
2023-04-02T09:18:13.341Z,12.10
2023-04-02T09:19:13.295Z,12.60
2023-04-02T09:20:13.321Z,12.70
2023-04-02T09:21:13.301Z,12.20
2023-04-02T09:22:13.289Z,12.00
2023-04-02T09:23:13.292Z,12.10
2023-04-02T09:24:13.284Z,12.10
2023-04-02T09:25:13.306Z,11.30
2023-04-02T09:26:13.281Z,11.90
2023-04-02T09:27:13.283Z,12.30
2023-04-02T09:28:13.280Z,12.30
2023-04-02T09:29:13.350Z,12.00
2023-04-02T09:30:13.286Z,12.50
2023-04-02T09:31:13.384Z,12.10
2023-04-02T09:32:13.275Z,12.80
2023-04-02T09:33:13.290Z,13.30
2023-04-02T09:34:13.274Z,13.70
2023-04-02T09:35:24.623Z,13.10
2023-04-02T09:36:15.691Z,12.90
2023-04-02T09:37:13.266Z,12.80
2023-04-02T09:38:13.266Z,13.50
2023-04-02T09:39:13.263Z,13.20
2023-04-02T09:40:13.265Z,12.50
2023-04-02T09:41:13.262Z,13.00
2023-04-02T09:42:13.259Z,12.80
2023-04-02T09:43:13.280Z,13.30
2023-04-02T09:44:13.281Z,12.60
2023-04-02T09:45:13.260Z,12.20
2023-04-02T09:46:13.287Z,12.60
2023-04-02T09:47:13.248Z,12.70
2023-04-02T09:48:13.270Z,12.70
2023-04-02T09:49:13.244Z,12.90
2023-04-02T09:50:13.251Z,13.10
2023-04-02T09:51:13.250Z,12.90
2023-04-02T09:52:13.268Z,12.70
2023-04-02T09:53:13.241Z,12.90
2023-04-02T09:54:13.243Z,13.30
2023-04-02T09:55:13.241Z,13.10
2023-04-02T09:56:13.261Z,13.20
2023-04-02T09:57:13.281Z,13.50
2023-04-02T09:58:13.236Z,13.20
2023-04-02T09:59:13.251Z,13.30
2023-04-02T10:00:25.447Z,13.30
2023-04-02T10:01:13.242Z,13.30
2023-04-02T10:02:13.234Z,13.30
2023-04-02T10:03:13.231Z,13.60
2023-04-02T10:04:13.312Z,13.60
2023-04-02T10:05:13.748Z,13.20
2023-04-02T10:06:13.228Z,13.40
2023-04-02T10:07:13.224Z,13.00
2023-04-02T10:08:13.258Z,13.40
2023-04-02T10:09:13.216Z,13.20
2023-04-02T10:10:13.285Z,13.50
2023-04-02T10:11:13.217Z,14.00
2023-04-02T10:12:13.223Z,13.70
2023-04-02T10:13:13.218Z,13.60
2023-04-02T10:14:13.221Z,13.90
2023-04-02T10:15:13.214Z,13.60
2023-04-02T10:16:13.324Z,13.10
2023-04-02T10:17:13.389Z,13.10
2023-04-02T10:18:13.214Z,13.40
2023-04-02T10:19:13.241Z,13.40
2023-04-02T10:20:13.262Z,13.70
2023-04-02T10:21:13.219Z,13.70
2023-04-02T10:22:13.217Z,13.60
2023-04-02T10:23:13.209Z,13.70
2023-04-02T10:24:13.275Z,13.90
2023-04-02T10:25:13.202Z,13.50
2023-04-02T10:26:13.225Z,13.50
2023-04-02T10:27:13.202Z,13.60
2023-04-02T10:28:13.205Z,13.30
2023-04-02T10:29:13.211Z,13.50
2023-04-02T10:30:13.281Z,13.40
2023-04-02T10:31:13.347Z,13.80
2023-04-02T10:32:13.287Z,13.40
2023-04-02T10:33:13.200Z,13.60
2023-04-02T10:34:13.216Z,13.50
2023-04-02T10:35:13.212Z,13.90
2023-04-02T10:36:13.224Z,13.30
2023-04-02T10:37:13.197Z,13.60
2023-04-02T10:38:13.195Z,13.10
2023-04-02T10:39:13.195Z,13.10
2023-04-02T10:40:13.225Z,13.20
2023-04-02T10:41:13.192Z,13.20
2023-04-02T10:42:13.200Z,12.70
2023-04-02T10:43:13.191Z,12.60
2023-04-02T10:44:20.137Z,13.30
2023-04-02T10:45:13.187Z,13.00
2023-04-02T10:46:13.343Z,13.20
2023-04-02T10:47:13.190Z,13.10
2023-04-02T10:48:13.246Z,13.60
2023-04-02T10:49:13.223Z,13.10
2023-04-02T10:50:13.190Z,12.80
2023-04-02T10:51:13.188Z,13.10
2023-04-02T10:52:13.191Z,13.30
2023-04-02T10:53:13.194Z,13.30
2023-04-02T10:54:13.193Z,12.80
2023-04-02T10:55:13.182Z,13.60
2023-04-02T10:56:13.205Z,13.40
2023-04-02T10:57:13.260Z,13.10
2023-04-02T10:58:13.183Z,13.20
2023-04-02T10:59:13.180Z,13.50
2023-04-02T11:00:13.177Z,13.10
2023-04-02T11:01:13.195Z,12.80
2023-04-02T11:02:13.218Z,13.30
2023-04-02T11:03:13.257Z,13.20
2023-04-02T11:04:14.278Z,13.10
2023-04-02T11:05:13.187Z,13.50
2023-04-02T11:06:13.172Z,13.20
2023-04-02T11:07:14.892Z,13.50
2023-04-02T11:08:13.186Z,14.30
2023-04-02T11:09:13.167Z,14.10
2023-04-02T11:10:13.173Z,13.80
2023-04-02T11:11:13.182Z,13.30
2023-04-02T11:12:13.197Z,13.00
2023-04-02T11:13:13.167Z,13.10
2023-04-02T11:14:13.176Z,12.70
2023-04-02T11:15:13.187Z,12.70
2023-04-02T11:16:13.181Z,12.50
2023-04-02T11:17:13.165Z,13.10
2023-04-02T11:18:13.160Z,12.70
2023-04-02T11:19:13.162Z,12.90
2023-04-02T11:20:13.168Z,12.50
2023-04-02T11:21:13.155Z,12.90
2023-04-02T11:22:13.176Z,12.40
2023-04-02T11:23:13.155Z,12.00
2023-04-02T11:24:13.154Z,12.10
2023-04-02T11:25:13.153Z,12.30
2023-04-02T11:26:13.152Z,12.40
2023-04-02T11:27:13.147Z,12.10
2023-04-02T11:28:13.169Z,12.00
2023-04-02T11:29:13.152Z,12.00
2023-04-02T11:30:13.153Z,11.80
2023-04-02T11:31:13.188Z,12.40
2023-04-02T11:32:13.145Z,12.70
2023-04-02T11:33:14.422Z,12.20
2023-04-02T11:34:13.142Z,12.40
2023-04-02T11:35:13.136Z,11.10
2023-04-02T11:36:13.144Z,11.20
2023-04-02T11:37:13.134Z,12.00
2023-04-02T11:38:13.136Z,11.20
2023-04-02T11:39:17.361Z,12.10
2023-04-02T11:40:13.137Z,12.30
2023-04-02T11:41:13.130Z,12.20
2023-04-02T11:42:13.132Z,12.00
2023-04-02T11:43:13.127Z,12.10
2023-04-02T11:44:13.159Z,12.30
2023-04-02T11:45:13.125Z,12.10
2023-04-02T11:46:13.238Z,12.80
2023-04-02T11:47:13.123Z,12.40
2023-04-02T11:48:13.128Z,12.00
2023-04-02T11:49:13.136Z,12.30
2023-04-02T11:50:13.121Z,12.10
2023-04-02T11:51:13.114Z,12.00
2023-04-02T11:52:13.128Z,12.20
2023-04-02T11:53:13.182Z,12.20
2023-04-02T11:54:13.118Z,11.80
2023-04-02T11:55:13.116Z,12.30
2023-04-02T11:56:13.119Z,12.10
2023-04-02T11:57:13.154Z,11.70
2023-04-02T11:58:13.109Z,12.00
2023-04-02T11:59:13.104Z,12.50
2023-04-02T12:00:13.172Z,12.30
2023-04-02T12:01:13.112Z,11.50
2023-04-02T12:02:13.124Z,12.20
2023-04-02T12:03:13.123Z,12.80
2023-04-02T12:04:13.099Z,12.30
2023-04-02T12:05:13.147Z,12.50
2023-04-02T12:06:13.095Z,12.60
2023-04-02T12:07:13.112Z,12.40
2023-04-02T12:08:13.098Z,12.90
2023-04-02T12:09:13.089Z,12.70
2023-04-02T12:10:13.098Z,12.70
2023-04-02T12:11:13.089Z,13.10
2023-04-02T12:12:13.086Z,13.40
2023-04-02T12:13:13.085Z,13.00
2023-04-02T12:14:13.082Z,13.10
2023-04-02T12:15:13.082Z,13.00
2023-04-02T12:16:13.172Z,12.80
2023-04-02T12:17:13.145Z,13.10
2023-04-02T12:18:13.082Z,13.20
2023-04-02T12:19:13.080Z,13.50
2023-04-02T12:20:13.080Z,13.50
2023-04-02T12:21:13.071Z,13.60
2023-04-02T12:22:13.075Z,13.50
2023-04-02T12:23:13.071Z,13.10
2023-04-02T12:24:13.077Z,13.10
2023-04-02T12:25:13.069Z,12.80
2023-04-02T12:26:13.066Z,12.50
2023-04-02T12:27:13.068Z,13.00
2023-04-02T12:28:13.067Z,13.00
2023-04-02T12:29:13.066Z,12.90
2023-04-02T12:30:13.060Z,13.00
2023-04-02T12:31:13.125Z,13.00
2023-04-02T12:32:13.090Z,12.40
2023-04-02T12:33:13.089Z,13.30
2023-04-02T12:34:13.060Z,13.00
2023-04-02T12:35:13.060Z,12.70
2023-04-02T12:36:13.085Z,12.90
2023-04-02T12:37:13.052Z,12.30
2023-04-02T12:38:13.054Z,12.40
2023-04-02T12:39:13.051Z,12.70
2023-04-02T12:40:13.047Z,12.90
2023-04-02T12:41:13.048Z,12.60
2023-04-02T12:42:13.045Z,13.10
2023-04-02T12:43:13.040Z,12.90
2023-04-02T12:44:13.047Z,12.90
2023-04-02T12:45:13.044Z,13.00
2023-04-02T12:46:13.088Z,12.70
2023-04-02T12:47:13.046Z,12.60
2023-04-02T12:48:13.063Z,12.60
2023-04-02T12:49:13.038Z,13.10
2023-04-02T12:50:13.038Z,13.00
2023-04-02T12:51:13.034Z,12.80
2023-04-02T12:52:13.037Z,13.00